sensor_id;sensor_type;location;lat;lon;timestamp;P1;durP1;ratioP1;P2;durP2;ratioP2
76021;SDS011;64718;52.124;6.226;2023-08-20T00:00:07;12.25;;;6.20;;
76021;SDS011;64718;52.124;6.226;2023-08-20T00:02:36;11.73;;;6.45;;
76021;SDS011;64718;52.124;6.226;2023-08-20T00:05:04;14.80;;;7.00;;
76021;SDS011;64718;52.124;6.226;2023-08-20T00:07:31;12.95;;;7.65;;
76021;SDS011;64718;52.124;6.226;2023-08-20T00:09:59;13.98;;;8.10;;
76021;SDS011;64718;52.124;6.226;2023-08-20T00:12:26;14.63;;;8.60;;
76021;SDS011;64718;52.124;6.226;2023-08-20T00:14:53;16.08;;;8.73;;
76021;SDS011;64718;52.124;6.226;2023-08-20T00:17:22;15.50;;;8.50;;
76021;SDS011;64718;52.124;6.226;2023-08-20T00:19:52;16.30;;;8.93;;
76021;SDS011;64718;52.124;6.226;2023-08-20T00:22:20;19.70;;;9.05;;
76021;SDS011;64718;52.124;6.226;2023-08-20T00:24:48;13.65;;;7.95;;
76021;SDS011;64718;52.124;6.226;2023-08-20T00:27:17;17.80;;;8.85;;
76021;SDS011;64718;52.124;6.226;2023-08-20T00:29:43;16.45;;;8.75;;
76021;SDS011;64718;52.124;6.226;2023-08-20T00:32:10;16.75;;;8.35;;
76021;SDS011;64718;52.124;6.226;2023-08-20T00:34:37;14.25;;;7.88;;
76021;SDS011;64718;52.124;6.226;2023-08-20T00:37:04;15.45;;;8.43;;
76021;SDS011;64718;52.124;6.226;2023-08-20T00:39:30;15.20;;;8.73;;
76021;SDS011;64718;52.124;6.226;2023-08-20T00:41:57;14.82;;;8.55;;
76021;SDS011;64718;52.124;6.226;2023-08-20T00:44:25;14.93;;;8.45;;
76021;SDS011;64718;52.124;6.226;2023-08-20T00:46:51;18.17;;;9.35;;
76021;SDS011;64718;52.124;6.226;2023-08-20T00:49:19;17.30;;;8.85;;
76021;SDS011;64718;52.124;6.226;2023-08-20T00:51:46;17.23;;;8.70;;
76021;SDS011;64718;52.124;6.226;2023-08-20T00:54:13;16.88;;;8.80;;
76021;SDS011;64718;52.124;6.226;2023-08-20T00:56:40;12.95;;;8.23;;
76021;SDS011;64718;52.124;6.226;2023-08-20T00:59:07;16.42;;;8.18;;
76021;SDS011;64718;52.124;6.226;2023-08-20T01:01:35;12.32;;;7.22;;
76021;SDS011;64718;52.124;6.226;2023-08-20T01:04:02;12.88;;;7.70;;
76021;SDS011;64718;52.124;6.226;2023-08-20T01:06:31;16.05;;;7.90;;
76021;SDS011;64718;52.124;6.226;2023-08-20T01:09:07;19.40;;;9.40;;
76021;SDS011;64718;52.124;6.226;2023-08-20T01:11:55;19.73;;;10.10;;
76021;SDS011;64718;52.124;6.226;2023-08-20T01:14:25;15.18;;;7.82;;
76021;SDS011;64718;52.124;6.226;2023-08-20T01:16:53;18.27;;;8.90;;
76021;SDS011;64718;52.124;6.226;2023-08-20T01:19:20;14.75;;;8.00;;
76021;SDS011;64718;52.124;6.226;2023-08-20T01:21:52;15.63;;;8.00;;
76021;SDS011;64718;52.124;6.226;2023-08-20T01:24:44;12.65;;;7.57;;
76021;SDS011;64718;52.124;6.226;2023-08-20T01:27:25;15.73;;;8.32;;
76021;SDS011;64718;52.124;6.226;2023-08-20T01:29:57;14.57;;;8.48;;
76021;SDS011;64718;52.124;6.226;2023-08-20T01:32:26;14.23;;;8.00;;
76021;SDS011;64718;52.124;6.226;2023-08-20T01:34:53;16.20;;;7.43;;
76021;SDS011;64718;52.124;6.226;2023-08-20T01:37:22;13.40;;;6.78;;
76021;SDS011;64718;52.124;6.226;2023-08-20T01:39:49;11.85;;;6.70;;
76021;SDS011;64718;52.124;6.226;2023-08-20T01:42:16;16.52;;;7.80;;
76021;SDS011;64718;52.124;6.226;2023-08-20T01:44:42;12.45;;;6.10;;
76021;SDS011;64718;52.124;6.226;2023-08-20T01:47:10;14.73;;;7.25;;
76021;SDS011;64718;52.124;6.226;2023-08-20T01:49:37;15.10;;;6.97;;
76021;SDS011;64718;52.124;6.226;2023-08-20T01:52:04;15.40;;;7.53;;
76021;SDS011;64718;52.124;6.226;2023-08-20T01:54:30;14.00;;;6.93;;
76021;SDS011;64718;52.124;6.226;2023-08-20T01:56:57;15.35;;;8.48;;
76021;SDS011;64718;52.124;6.226;2023-08-20T01:59:24;14.73;;;7.47;;
76021;SDS011;64718;52.124;6.226;2023-08-20T02:01:50;16.60;;;7.65;;
76021;SDS011;64718;52.124;6.226;2023-08-20T02:04:18;15.95;;;7.68;;
76021;SDS011;64718;52.124;6.226;2023-08-20T02:06:45;14.02;;;6.68;;
76021;SDS011;64718;52.124;6.226;2023-08-20T02:09:11;14.68;;;7.03;;
76021;SDS011;64718;52.124;6.226;2023-08-20T02:11:38;18.42;;;7.60;;
76021;SDS011;64718;52.124;6.226;2023-08-20T02:14:04;13.77;;;7.65;;
76021;SDS011;64718;52.124;6.226;2023-08-20T02:16:31;13.88;;;7.53;;
76021;SDS011;64718;52.124;6.226;2023-08-20T02:18:58;15.25;;;7.57;;
76021;SDS011;64718;52.124;6.226;2023-08-20T02:21:26;16.75;;;8.15;;
76021;SDS011;64718;52.124;6.226;2023-08-20T02:23:52;14.93;;;8.05;;
76021;SDS011;64718;52.124;6.226;2023-08-20T02:26:19;14.52;;;7.38;;
76021;SDS011;64718;52.124;6.226;2023-08-20T02:28:45;14.23;;;7.50;;
76021;SDS011;64718;52.124;6.226;2023-08-20T02:31:12;16.98;;;8.48;;
76021;SDS011;64718;52.124;6.226;2023-08-20T02:33:38;16.45;;;9.18;;
76021;SDS011;64718;52.124;6.226;2023-08-20T02:36:05;14.60;;;7.25;;
76021;SDS011;64718;52.124;6.226;2023-08-20T02:38:33;14.15;;;7.13;;
76021;SDS011;64718;52.124;6.226;2023-08-20T02:41:00;14.27;;;7.93;;
76021;SDS011;64718;52.124;6.226;2023-08-20T02:43:27;13.82;;;8.18;;
76021;SDS011;64718;52.124;6.226;2023-08-20T02:45:54;11.77;;;6.57;;
76021;SDS011;64718;52.124;6.226;2023-08-20T02:48:21;16.98;;;7.80;;
76021;SDS011;64718;52.124;6.226;2023-08-20T02:50:51;14.43;;;6.90;;
76021;SDS011;64718;52.124;6.226;2023-08-20T02:53:18;17.55;;;7.35;;
76021;SDS011;64718;52.124;6.226;2023-08-20T02:55:46;13.73;;;7.32;;
76021;SDS011;64718;52.124;6.226;2023-08-20T02:58:13;14.07;;;8.07;;
76021;SDS011;64718;52.124;6.226;2023-08-20T03:00:40;13.52;;;8.25;;
76021;SDS011;64718;52.124;6.226;2023-08-20T03:03:07;19.60;;;9.95;;
76021;SDS011;64718;52.124;6.226;2023-08-20T03:05:34;16.40;;;9.15;;
76021;SDS011;64718;52.124;6.226;2023-08-20T03:08:01;19.48;;;9.57;;
76021;SDS011;64718;52.124;6.226;2023-08-20T03:10:29;20.05;;;9.70;;
76021;SDS011;64718;52.124;6.226;2023-08-20T03:12:58;16.08;;;8.63;;
76021;SDS011;64718;52.124;6.226;2023-08-20T03:15:25;14.35;;;9.15;;
76021;SDS011;64718;52.124;6.226;2023-08-20T03:17:52;22.48;;;9.48;;
76021;SDS011;64718;52.124;6.226;2023-08-20T03:20:19;19.08;;;10.57;;
76021;SDS011;64718;52.124;6.226;2023-08-20T03:22:45;21.63;;;11.55;;
76021;SDS011;64718;52.124;6.226;2023-08-20T03:25:12;18.58;;;11.98;;
76021;SDS011;64718;52.124;6.226;2023-08-20T03:27:39;21.08;;;10.63;;
76021;SDS011;64718;52.124;6.226;2023-08-20T03:30:07;19.35;;;11.23;;
76021;SDS011;64718;52.124;6.226;2023-08-20T03:32:34;19.00;;;9.48;;
76021;SDS011;64718;52.124;6.226;2023-08-20T03:35:01;21.83;;;10.57;;
76021;SDS011;64718;52.124;6.226;2023-08-20T03:37:28;21.77;;;12.35;;
76021;SDS011;64718;52.124;6.226;2023-08-20T03:39:54;19.00;;;11.25;;
76021;SDS011;64718;52.124;6.226;2023-08-20T03:42:21;23.17;;;11.25;;
76021;SDS011;64718;52.124;6.226;2023-08-20T03:44:48;19.77;;;10.07;;
76021;SDS011;64718;52.124;6.226;2023-08-20T03:47:16;16.55;;;10.73;;
76021;SDS011;64718;52.124;6.226;2023-08-20T03:49:45;16.80;;;9.70;;
76021;SDS011;64718;52.124;6.226;2023-08-20T03:52:12;19.60;;;9.48;;
76021;SDS011;64718;52.124;6.226;2023-08-20T03:54:38;13.93;;;8.77;;
76021;SDS011;64718;52.124;6.226;2023-08-20T03:57:05;20.33;;;10.30;;
76021;SDS011;64718;52.124;6.226;2023-08-20T03:59:31;20.23;;;11.20;;
76021;SDS011;64718;52.124;6.226;2023-08-20T04:01:58;23.48;;;11.60;;
76021;SDS011;64718;52.124;6.226;2023-08-20T04:04:26;23.20;;;11.65;;
76021;SDS011;64718;52.124;6.226;2023-08-20T04:06:53;25.23;;;12.60;;
76021;SDS011;64718;52.124;6.226;2023-08-20T04:09:19;18.88;;;10.90;;
76021;SDS011;64718;52.124;6.226;2023-08-20T04:11:46;23.52;;;11.77;;
76021;SDS011;64718;52.124;6.226;2023-08-20T04:14:13;21.20;;;11.30;;
76021;SDS011;64718;52.124;6.226;2023-08-20T04:16:39;17.42;;;9.32;;
76021;SDS011;64718;52.124;6.226;2023-08-20T04:19:06;19.70;;;11.18;;
76021;SDS011;64718;52.124;6.226;2023-08-20T04:21:34;17.50;;;9.30;;
76021;SDS011;64718;52.124;6.226;2023-08-20T04:24:00;16.65;;;10.27;;
76021;SDS011;64718;52.124;6.226;2023-08-20T04:26:27;16.27;;;9.32;;
76021;SDS011;64718;52.124;6.226;2023-08-20T04:28:53;16.38;;;9.55;;
76021;SDS011;64718;52.124;6.226;2023-08-20T04:31:20;20.02;;;10.73;;
76021;SDS011;64718;52.124;6.226;2023-08-20T04:33:47;19.42;;;11.38;;
76021;SDS011;64718;52.124;6.226;2023-08-20T04:36:14;18.65;;;10.80;;
76021;SDS011;64718;52.124;6.226;2023-08-20T04:38:42;19.40;;;10.95;;
76021;SDS011;64718;52.124;6.226;2023-08-20T04:41:08;20.17;;;10.02;;
76021;SDS011;64718;52.124;6.226;2023-08-20T04:43:35;24.13;;;11.95;;
76021;SDS011;64718;52.124;6.226;2023-08-20T04:46:01;20.25;;;10.90;;
76021;SDS011;64718;52.124;6.226;2023-08-20T04:48:28;20.67;;;10.20;;
76021;SDS011;64718;52.124;6.226;2023-08-20T04:50:54;14.85;;;9.20;;
76021;SDS011;64718;52.124;6.226;2023-08-20T04:53:21;17.98;;;10.57;;
76021;SDS011;64718;52.124;6.226;2023-08-20T04:55:49;16.98;;;10.88;;
76021;SDS011;64718;52.124;6.226;2023-08-20T04:58:15;17.35;;;9.48;;
76021;SDS011;64718;52.124;6.226;2023-08-20T05:00:42;18.70;;;10.55;;
76021;SDS011;64718;52.124;6.226;2023-08-20T05:03:09;19.45;;;11.23;;
76021;SDS011;64718;52.124;6.226;2023-08-20T05:05:35;20.15;;;11.73;;
76021;SDS011;64718;52.124;6.226;2023-08-20T05:08:02;19.98;;;11.10;;
76021;SDS011;64718;52.124;6.226;2023-08-20T05:10:29;19.05;;;10.75;;
76021;SDS011;64718;52.124;6.226;2023-08-20T05:12:57;22.95;;;12.65;;
76021;SDS011;64718;52.124;6.226;2023-08-20T05:15:24;18.65;;;10.55;;
76021;SDS011;64718;52.124;6.226;2023-08-20T05:17:50;17.50;;;10.55;;
76021;SDS011;64718;52.124;6.226;2023-08-20T05:20:17;17.60;;;9.88;;
76021;SDS011;64718;52.124;6.226;2023-08-20T05:22:44;17.60;;;10.38;;
76021;SDS011;64718;52.124;6.226;2023-08-20T05:25:10;20.60;;;11.82;;
76021;SDS011;64718;52.124;6.226;2023-08-20T05:27:37;17.40;;;10.73;;
76021;SDS011;64718;52.124;6.226;2023-08-20T05:30:05;15.75;;;10.57;;
76021;SDS011;64718;52.124;6.226;2023-08-20T05:32:34;16.00;;;9.23;;
76021;SDS011;64718;52.124;6.226;2023-08-20T05:35:00;14.90;;;9.80;;
76021;SDS011;64718;52.124;6.226;2023-08-20T05:37:29;15.20;;;9.70;;
76021;SDS011;64718;52.124;6.226;2023-08-20T05:39:55;17.65;;;10.15;;
76021;SDS011;64718;52.124;6.226;2023-08-20T05:42:22;18.48;;;10.32;;
76021;SDS011;64718;52.124;6.226;2023-08-20T05:44:49;14.05;;;9.45;;
76021;SDS011;64718;52.124;6.226;2023-08-20T05:47:16;12.30;;;7.22;;
76021;SDS011;64718;52.124;6.226;2023-08-20T05:49:43;9.60;;;5.97;;
76021;SDS011;64718;52.124;6.226;2023-08-20T05:52:10;8.45;;;5.88;;
76021;SDS011;64718;52.124;6.226;2023-08-20T05:54:36;10.70;;;5.05;;
76021;SDS011;64718;52.124;6.226;2023-08-20T05:57:03;7.22;;;4.82;;
76021;SDS011;64718;52.124;6.226;2023-08-20T05:59:29;6.90;;;4.05;;
76021;SDS011;64718;52.124;6.226;2023-08-20T06:01:56;5.32;;;3.28;;
76021;SDS011;64718;52.124;6.226;2023-08-20T06:04:24;5.43;;;3.10;;
76021;SDS011;64718;52.124;6.226;2023-08-20T06:06:51;5.78;;;2.92;;
76021;SDS011;64718;52.124;6.226;2023-08-20T06:09:17;4.00;;;2.33;;
76021;SDS011;64718;52.124;6.226;2023-08-20T06:11:44;6.80;;;2.65;;
76021;SDS011;64718;52.124;6.226;2023-08-20T06:14:11;7.53;;;2.65;;
76021;SDS011;64718;52.124;6.226;2023-08-20T06:16:37;5.55;;;2.00;;
76021;SDS011;64718;52.124;6.226;2023-08-20T06:19:04;3.55;;;1.80;;
76021;SDS011;64718;52.124;6.226;2023-08-20T06:21:32;5.45;;;2.00;;
76021;SDS011;64718;52.124;6.226;2023-08-20T06:23:59;6.60;;;1.95;;
76021;SDS011;64718;52.124;6.226;2023-08-20T06:26:26;3.30;;;1.77;;
76021;SDS011;64718;52.124;6.226;2023-08-20T06:28:52;6.13;;;2.13;;
76021;SDS011;64718;52.124;6.226;2023-08-20T06:31:19;2.17;;;1.80;;
76021;SDS011;64718;52.124;6.226;2023-08-20T06:33:46;3.45;;;2.03;;
76021;SDS011;64718;52.124;6.226;2023-08-20T06:36:13;4.28;;;2.17;;
76021;SDS011;64718;52.124;6.226;2023-08-20T06:38:41;3.70;;;2.00;;
76021;SDS011;64718;52.124;6.226;2023-08-20T06:41:07;6.90;;;1.83;;
76021;SDS011;64718;52.124;6.226;2023-08-20T06:43:34;4.07;;;1.63;;
76021;SDS011;64718;52.124;6.226;2023-08-20T06:46:00;3.05;;;1.35;;
76021;SDS011;64718;52.124;6.226;2023-08-20T06:48:27;4.35;;;1.77;;
76021;SDS011;64718;52.124;6.226;2023-08-20T06:50:53;4.22;;;1.65;;
76021;SDS011;64718;52.124;6.226;2023-08-20T06:53:20;3.70;;;1.63;;
76021;SDS011;64718;52.124;6.226;2023-08-20T06:55:48;3.45;;;1.60;;
76021;SDS011;64718;52.124;6.226;2023-08-20T06:58:15;6.90;;;2.33;;
76021;SDS011;64718;52.124;6.226;2023-08-20T07:00:41;4.47;;;1.42;;
76021;SDS011;64718;52.124;6.226;2023-08-20T07:03:08;3.53;;;1.52;;
76021;SDS011;64718;52.124;6.226;2023-08-20T07:05:34;4.10;;;1.60;;
76021;SDS011;64718;52.124;6.226;2023-08-20T07:08:01;6.20;;;1.80;;
76021;SDS011;64718;52.124;6.226;2023-08-20T07:10:27;5.43;;;1.88;;
76021;SDS011;64718;52.124;6.226;2023-08-20T07:12:55;3.92;;;1.42;;
76021;SDS011;64718;52.124;6.226;2023-08-20T07:15:22;5.07;;;1.52;;
76021;SDS011;64718;52.124;6.226;2023-08-20T07:17:49;3.08;;;2.15;;
76021;SDS011;64718;52.124;6.226;2023-08-20T07:20:15;2.25;;;1.30;;
76021;SDS011;64718;52.124;6.226;2023-08-20T07:22:42;5.22;;;2.00;;
76021;SDS011;64718;52.124;6.226;2023-08-20T07:25:08;4.80;;;1.40;;
76021;SDS011;64718;52.124;6.226;2023-08-20T07:27:35;3.33;;;1.13;;
76021;SDS011;64718;52.124;6.226;2023-08-20T07:30:03;2.53;;;1.38;;
76021;SDS011;64718;52.124;6.226;2023-08-20T07:32:32;3.28;;;1.48;;
76021;SDS011;64718;52.124;6.226;2023-08-20T07:34:58;2.38;;;1.42;;
76021;SDS011;64718;52.124;6.226;2023-08-20T07:37:25;4.03;;;1.52;;
76021;SDS011;64718;52.124;6.226;2023-08-20T07:39:52;3.90;;;1.38;;
76021;SDS011;64718;52.124;6.226;2023-08-20T07:42:18;2.97;;;1.02;;
76021;SDS011;64718;52.124;6.226;2023-08-20T07:44:45;2.90;;;1.58;;
76021;SDS011;64718;52.124;6.226;2023-08-20T07:47:13;2.67;;;1.20;;
76021;SDS011;64718;52.124;6.226;2023-08-20T07:52:06;3.53;;;1.23;;
76021;SDS011;64718;52.124;6.226;2023-08-20T07:54:32;3.17;;;1.40;;
76021;SDS011;64718;52.124;6.226;2023-08-20T07:56:59;1.48;;;0.93;;
76021;SDS011;64718;52.124;6.226;2023-08-20T07:59:25;2.20;;;1.10;;
76021;SDS011;64718;52.124;6.226;2023-08-20T08:01:52;3.38;;;1.25;;
76021;SDS011;64718;52.124;6.226;2023-08-20T08:04:20;4.63;;;1.70;;
76021;SDS011;64718;52.124;6.226;2023-08-20T08:09:19;4.47;;;1.30;;
76021;SDS011;64718;52.124;6.226;2023-08-20T08:11:48;2.45;;;1.40;;
76021;SDS011;64718;52.124;6.226;2023-08-20T08:14:15;2.45;;;1.60;;
76021;SDS011;64718;52.124;6.226;2023-08-20T08:16:41;0.90;;;0.80;;
76021;SDS011;64718;52.124;6.226;2023-08-20T08:19:08;3.70;;;1.17;;
76021;SDS011;64718;52.124;6.226;2023-08-20T08:21:36;2.35;;;1.20;;
76021;SDS011;64718;52.124;6.226;2023-08-20T08:24:03;1.17;;;0.95;;
76021;SDS011;64718;52.124;6.226;2023-08-20T08:26:30;2.60;;;1.05;;
76021;SDS011;64718;52.124;6.226;2023-08-20T08:28:57;2.65;;;1.25;;
76021;SDS011;64718;52.124;6.226;2023-08-20T08:31:24;3.60;;;1.25;;
76021;SDS011;64718;52.124;6.226;2023-08-20T08:33:50;2.10;;;1.08;;
76021;SDS011;64718;52.124;6.226;2023-08-20T08:36:17;4.63;;;1.15;;
76021;SDS011;64718;52.124;6.226;2023-08-20T08:38:45;2.97;;;0.93;;
76021;SDS011;64718;52.124;6.226;2023-08-20T08:41:12;2.13;;;0.88;;
76021;SDS011;64718;52.124;6.226;2023-08-20T08:43:39;3.03;;;1.33;;
76021;SDS011;64718;52.124;6.226;2023-08-20T08:46:07;3.30;;;1.20;;
76021;SDS011;64718;52.124;6.226;2023-08-20T08:48:38;3.22;;;1.13;;
76021;SDS011;64718;52.124;6.226;2023-08-20T08:51:06;2.78;;;1.45;;
76021;SDS011;64718;52.124;6.226;2023-08-20T08:53:33;1.88;;;1.25;;
76021;SDS011;64718;52.124;6.226;2023-08-20T08:56:02;4.55;;;1.30;;
76021;SDS011;64718;52.124;6.226;2023-08-20T08:58:30;2.78;;;1.00;;
76021;SDS011;64718;52.124;6.226;2023-08-20T09:00:57;2.97;;;1.55;;
76021;SDS011;64718;52.124;6.226;2023-08-20T09:03:24;2.63;;;1.20;;
76021;SDS011;64718;52.124;6.226;2023-08-20T09:05:54;3.95;;;1.10;;
76021;SDS011;64718;52.124;6.226;2023-08-20T09:08:21;1.70;;;1.10;;
76021;SDS011;64718;52.124;6.226;2023-08-20T09:10:52;2.85;;;1.30;;
76021;SDS011;64718;52.124;6.226;2023-08-20T09:13:25;5.35;;;1.20;;
76021;SDS011;64718;52.124;6.226;2023-08-20T09:15:59;2.78;;;1.00;;
76021;SDS011;64718;52.124;6.226;2023-08-20T09:18:29;1.30;;;0.80;;
76021;SDS011;64718;52.124;6.226;2023-08-20T09:20:56;4.38;;;1.25;;
76021;SDS011;64718;52.124;6.226;2023-08-20T09:25:52;3.15;;;1.13;;
76021;SDS011;64718;52.124;6.226;2023-08-20T09:28:19;1.42;;;0.77;;
76021;SDS011;64718;52.124;6.226;2023-08-20T09:30:58;3.85;;;1.30;;
76021;SDS011;64718;52.124;6.226;2023-08-20T09:33:27;5.65;;;1.42;;
76021;SDS011;64718;52.124;6.226;2023-08-20T09:35:54;0.70;;;0.50;;
76021;SDS011;64718;52.124;6.226;2023-08-20T09:38:21;1.20;;;0.50;;
76021;SDS011;64718;52.124;6.226;2023-08-20T09:40:49;3.75;;;0.63;;
76021;SDS011;64718;52.124;6.226;2023-08-20T09:43:17;1.90;;;0.70;;
76021;SDS011;64718;52.124;6.226;2023-08-20T09:45:44;3.15;;;1.00;;
76021;SDS011;64718;52.124;6.226;2023-08-20T09:48:14;2.05;;;0.85;;
76021;SDS011;64718;52.124;6.226;2023-08-20T09:50:44;4.20;;;1.15;;
76021;SDS011;64718;52.124;6.226;2023-08-20T09:53:16;1.60;;;1.25;;
76021;SDS011;64718;52.124;6.226;2023-08-20T09:55:48;1.55;;;0.60;;
76021;SDS011;64718;52.124;6.226;2023-08-20T09:58:18;2.22;;;0.82;;
76021;SDS011;64718;52.124;6.226;2023-08-20T10:00:50;2.05;;;0.40;;
76021;SDS011;64718;52.124;6.226;2023-08-20T10:03:19;2.15;;;0.50;;
76021;SDS011;64718;52.124;6.226;2023-08-20T10:05:48;2.75;;;0.15;;
76021;SDS011;64718;52.124;6.226;2023-08-20T10:08:15;3.75;;;0.70;;
76021;SDS011;64718;52.124;6.226;2023-08-20T10:10:43;0.35;;;0.30;;
76021;SDS011;64718;52.124;6.226;2023-08-20T10:13:12;2.38;;;0.60;;
76021;SDS011;64718;52.124;6.226;2023-08-20T10:15:40;2.10;;;0.40;;
76021;SDS011;64718;52.124;6.226;2023-08-20T10:18:07;3.30;;;0.40;;
76021;SDS011;64718;52.124;6.226;2023-08-20T10:20:35;1.85;;;0.45;;
76021;SDS011;64718;52.124;6.226;2023-08-20T10:23:05;0.93;;;0.50;;
76021;SDS011;64718;52.124;6.226;2023-08-20T10:25:31;0.38;;;0.30;;
76021;SDS011;64718;52.124;6.226;2023-08-20T10:28:13;2.90;;;0.43;;
76021;SDS011;64718;52.124;6.226;2023-08-20T10:31:03;1.45;;;0.32;;
76021;SDS011;64718;52.124;6.226;2023-08-20T10:35:59;1.33;;;0.45;;
76021;SDS011;64718;52.124;6.226;2023-08-20T10:38:35;1.02;;;0.20;;
76021;SDS011;64718;52.124;6.226;2023-08-20T10:41:03;1.00;;;0.20;;
76021;SDS011;64718;52.124;6.226;2023-08-20T10:43:33;2.53;;;0.35;;
76021;SDS011;64718;52.124;6.226;2023-08-20T10:46:07;0.45;;;0.10;;
76021;SDS011;64718;52.124;6.226;2023-08-20T10:48:35;2.22;;;0.15;;
76021;SDS011;64718;52.124;6.226;2023-08-20T10:51:08;1.58;;;0.20;;
76021;SDS011;64718;52.124;6.226;2023-08-20T10:53:35;0.43;;;0.10;;
76021;SDS011;64718;52.124;6.226;2023-08-20T10:56:12;2.22;;;0.40;;
76021;SDS011;64718;52.124;6.226;2023-08-20T10:58:44;2.72;;;0.32;;
76021;SDS011;64718;52.124;6.226;2023-08-20T11:01:12;1.02;;;0.30;;
76021;SDS011;64718;52.124;6.226;2023-08-20T11:03:40;2.38;;;0.30;;
76021;SDS011;64718;52.124;6.226;2023-08-20T11:06:08;0.88;;;0.25;;
76021;SDS011;64718;52.124;6.226;2023-08-20T11:08:35;2.42;;;0.68;;
76021;SDS011;64718;52.124;6.226;2023-08-20T11:11:02;2.17;;;0.30;;
76021;SDS011;64718;52.124;6.226;2023-08-20T11:13:29;1.00;;;0.20;;
76021;SDS011;64718;52.124;6.226;2023-08-20T11:15:56;1.23;;;0.20;;
76021;SDS011;64718;52.124;6.226;2023-08-20T11:18:22;2.17;;;0.30;;
76021;SDS011;64718;52.124;6.226;2023-08-20T11:20:50;1.20;;;0.10;;
76021;SDS011;64718;52.124;6.226;2023-08-20T11:23:18;1.13;;;0.20;;
76021;SDS011;64718;52.124;6.226;2023-08-20T11:25:45;1.52;;;0.10;;
76021;SDS011;64718;52.124;6.226;2023-08-20T11:28:12;0.45;;;0.15;;
76021;SDS011;64718;52.124;6.226;2023-08-20T11:30:38;1.02;;;0.35;;
76021;SDS011;64718;52.124;6.226;2023-08-20T11:33:05;0.55;;;0.20;;
76021;SDS011;64718;52.124;6.226;2023-08-20T11:35:32;0.30;;;0.15;;
76021;SDS011;64718;52.124;6.226;2023-08-20T11:37:59;1.55;;;0.28;;
76021;SDS011;64718;52.124;6.226;2023-08-20T11:40:28;1.50;;;0.17;;
76021;SDS011;64718;52.124;6.226;2023-08-20T11:42:54;1.30;;;0.20;;
76021;SDS011;64718;52.124;6.226;2023-08-20T11:45:21;3.40;;;0.60;;
76021;SDS011;64718;52.124;6.226;2023-08-20T11:47:48;1.05;;;0.13;;
76021;SDS011;64718;52.124;6.226;2023-08-20T11:50:14;1.35;;;0.20;;
76021;SDS011;64718;52.124;6.226;2023-08-20T11:52:42;2.47;;;0.40;;
76021;SDS011;64718;52.124;6.226;2023-08-20T11:55:09;2.38;;;0.20;;
76021;SDS011;64718;52.124;6.226;2023-08-20T11:57:37;1.08;;;0.20;;
76021;SDS011;64718;52.124;6.226;2023-08-20T12:00:04;1.38;;;0.43;;
76021;SDS011;64718;52.124;6.226;2023-08-20T12:02:34;0.80;;;0.30;;
76021;SDS011;64718;52.124;6.226;2023-08-20T12:05:00;2.55;;;0.60;;
76021;SDS011;64718;52.124;6.226;2023-08-20T12:07:29;2.05;;;0.20;;
76021;SDS011;64718;52.124;6.226;2023-08-20T12:12:22;1.42;;;0.30;;
76021;SDS011;64718;52.124;6.226;2023-08-20T12:14:50;1.60;;;0.17;;
76021;SDS011;64718;52.124;6.226;2023-08-20T12:17:17;3.08;;;0.40;;
76021;SDS011;64718;52.124;6.226;2023-08-20T12:19:43;0.52;;;0.28;;
76021;SDS011;64718;52.124;6.226;2023-08-20T12:22:10;2.03;;;0.30;;
76021;SDS011;64718;52.124;6.226;2023-08-20T12:24:37;1.23;;;0.32;;
76021;SDS011;64718;52.124;6.226;2023-08-20T12:27:04;3.72;;;0.40;;
76021;SDS011;64718;52.124;6.226;2023-08-20T12:29:30;1.23;;;0.55;;
76021;SDS011;64718;52.124;6.226;2023-08-20T12:31:58;1.90;;;0.43;;
76021;SDS011;64718;52.124;6.226;2023-08-20T12:34:26;1.73;;;0.20;;
76021;SDS011;64718;52.124;6.226;2023-08-20T12:36:55;1.52;;;0.32;;
76021;SDS011;64718;52.124;6.226;2023-08-20T12:39:21;3.30;;;0.98;;
76021;SDS011;64718;52.124;6.226;2023-08-20T12:41:48;2.00;;;0.30;;
76021;SDS011;64718;52.124;6.226;2023-08-20T12:44:15;0.85;;;0.30;;
76021;SDS011;64718;52.124;6.226;2023-08-20T12:46:41;1.08;;;0.20;;
76021;SDS011;64718;52.124;6.226;2023-08-20T12:49:09;1.83;;;0.73;;
76021;SDS011;64718;52.124;6.226;2023-08-20T12:51:36;2.08;;;0.40;;
76021;SDS011;64718;52.124;6.226;2023-08-20T12:54:03;2.83;;;0.38;;
76021;SDS011;64718;52.124;6.226;2023-08-20T12:56:30;1.50;;;0.40;;
76021;SDS011;64718;52.124;6.226;2023-08-20T12:58:56;1.10;;;0.30;;
76021;SDS011;64718;52.124;6.226;2023-08-20T13:01:23;1.17;;;0.50;;
76021;SDS011;64718;52.124;6.226;2023-08-20T13:03:50;1.10;;;0.50;;
76021;SDS011;64718;52.124;6.226;2023-08-20T13:06:19;2.42;;;0.35;;
76021;SDS011;64718;52.124;6.226;2023-08-20T13:08:46;1.15;;;0.20;;
76021;SDS011;64718;52.124;6.226;2023-08-20T13:11:13;2.25;;;0.55;;
76021;SDS011;64718;52.124;6.226;2023-08-20T13:13:43;1.88;;;0.63;;
76021;SDS011;64718;52.124;6.226;2023-08-20T13:16:10;1.95;;;0.32;;
76021;SDS011;64718;52.124;6.226;2023-08-20T13:18:37;3.13;;;0.70;;
76021;SDS011;64718;52.124;6.226;2023-08-20T13:21:04;3.10;;;0.68;;
76021;SDS011;64718;52.124;6.226;2023-08-20T13:23:32;1.90;;;0.45;;
76021;SDS011;64718;52.124;6.226;2023-08-20T13:25:59;1.85;;;0.77;;
76021;SDS011;64718;52.124;6.226;2023-08-20T13:28:25;2.20;;;0.32;;
76021;SDS011;64718;52.124;6.226;2023-08-20T13:30:52;3.10;;;0.30;;
76021;SDS011;64718;52.124;6.226;2023-08-20T13:33:18;1.38;;;0.25;;
76021;SDS011;64718;52.124;6.226;2023-08-20T13:35:45;1.98;;;0.40;;
76021;SDS011;64718;52.124;6.226;2023-08-20T13:38:12;2.40;;;0.52;;
76021;SDS011;64718;52.124;6.226;2023-08-20T13:40:40;3.13;;;0.52;;
76021;SDS011;64718;52.124;6.226;2023-08-20T13:43:06;1.15;;;0.20;;
76021;SDS011;64718;52.124;6.226;2023-08-20T13:45:34;1.05;;;0.40;;
76021;SDS011;64718;52.124;6.226;2023-08-20T13:48:01;1.95;;;0.57;;
76021;SDS011;64718;52.124;6.226;2023-08-20T13:50:27;1.45;;;0.30;;
76021;SDS011;64718;52.124;6.226;2023-08-20T13:52:55;1.73;;;0.50;;
76021;SDS011;64718;52.124;6.226;2023-08-20T13:55:22;2.03;;;0.55;;
76021;SDS011;64718;52.124;6.226;2023-08-20T13:57:49;1.40;;;0.35;;
76021;SDS011;64718;52.124;6.226;2023-08-20T14:00:16;2.45;;;0.32;;
76021;SDS011;64718;52.124;6.226;2023-08-20T14:02:43;3.15;;;0.40;;
76021;SDS011;64718;52.124;6.226;2023-08-20T14:05:09;1.20;;;0.38;;
76021;SDS011;64718;52.124;6.226;2023-08-20T14:07:36;0.85;;;0.28;;
76021;SDS011;64718;52.124;6.226;2023-08-20T14:10:03;2.15;;;0.28;;
76021;SDS011;64718;52.124;6.226;2023-08-20T14:14:58;3.17;;;0.43;;
76021;SDS011;64718;52.124;6.226;2023-08-20T14:17:25;3.55;;;0.50;;
76021;SDS011;64718;52.124;6.226;2023-08-20T14:19:53;1.02;;;0.40;;
76021;SDS011;64718;52.124;6.226;2023-08-20T14:22:20;2.95;;;0.57;;
76021;SDS011;64718;52.124;6.226;2023-08-20T14:24:46;1.30;;;0.40;;
76021;SDS011;64718;52.124;6.226;2023-08-20T14:27:13;1.77;;;0.30;;
76021;SDS011;64718;52.124;6.226;2023-08-20T14:29:40;1.77;;;0.50;;
76021;SDS011;64718;52.124;6.226;2023-08-20T14:32:08;2.13;;;0.52;;
76021;SDS011;64718;52.124;6.226;2023-08-20T14:34:35;0.68;;;0.60;;
76021;SDS011;64718;52.124;6.226;2023-08-20T14:37:01;1.08;;;0.38;;
76021;SDS011;64718;52.124;6.226;2023-08-20T14:39:28;2.92;;;0.80;;
76021;SDS011;64718;52.124;6.226;2023-08-20T14:44:23;2.25;;;0.60;;
76021;SDS011;64718;52.124;6.226;2023-08-20T14:46:49;1.25;;;0.38;;
76021;SDS011;64718;52.124;6.226;2023-08-20T14:49:17;0.82;;;0.30;;
76021;SDS011;64718;52.124;6.226;2023-08-20T14:51:44;2.10;;;0.40;;
76021;SDS011;64718;52.124;6.226;2023-08-20T14:54:10;0.73;;;0.73;;
76021;SDS011;64718;52.124;6.226;2023-08-20T14:56:37;2.90;;;0.70;;
76021;SDS011;64718;52.124;6.226;2023-08-20T14:59:03;1.50;;;0.38;;